sensor_id;sensor_type;location;lat;lon;timestamp;P1;durP1;ratioP1;P2;durP2;ratioP2
40907;SDS011;51055;59.436;24.778;2024-01-25T00:02:30;2.97;;;1.40;;
40907;SDS011;51055;59.436;24.778;2024-01-25T00:05:56;3.53;;;1.27;;
40907;SDS011;51055;59.436;24.778;2024-01-25T00:09:23;3.05;;;1.40;;
40907;SDS011;51055;59.436;24.778;2024-01-25T00:12:49;3.40;;;1.60;;
40907;SDS011;51055;59.436;24.778;2024-01-25T00:16:15;3.80;;;1.30;;
40907;SDS011;51055;59.436;24.778;2024-01-25T00:19:41;3.22;;;1.48;;
40907;SDS011;51055;59.436;24.778;2024-01-25T00:23:08;4.20;;;1.40;;
40907;SDS011;51055;59.436;24.778;2024-01-25T00:26:34;2.72;;;1.45;;
40907;SDS011;51055;59.436;24.778;2024-01-25T00:30:00;3.10;;;1.50;;
40907;SDS011;51055;59.436;24.778;2024-01-25T00:33:27;3.47;;;1.70;;
40907;SDS011;51055;59.436;24.778;2024-01-25T00:36:53;3.28;;;1.33;;
40907;SDS011;51055;59.436;24.778;2024-01-25T00:40:20;5.03;;;2.00;;
40907;SDS011;51055;59.436;24.778;2024-01-25T00:43:46;4.13;;;1.80;;
40907;SDS011;51055;59.436;24.778;2024-01-25T00:47:13;6.30;;;1.92;;
40907;SDS011;51055;59.436;24.778;2024-01-25T00:50:39;3.05;;;1.55;;
40907;SDS011;51055;59.436;24.778;2024-01-25T00:54:09;4.85;;;1.80;;
40907;SDS011;51055;59.436;24.778;2024-01-25T00:57:36;4.20;;;1.63;;
40907;SDS011;51055;59.436;24.778;2024-01-25T01:01:03;5.45;;;1.90;;
40907;SDS011;51055;59.436;24.778;2024-01-25T01:04:35;5.70;;;2.00;;
40907;SDS011;51055;59.436;24.778;2024-01-25T01:08:02;5.18;;;2.10;;
40907;SDS011;51055;59.436;24.778;2024-01-25T01:11:29;6.28;;;2.42;;
40907;SDS011;51055;59.436;24.778;2024-01-25T01:14:55;5.80;;;2.47;;
40907;SDS011;51055;59.436;24.778;2024-01-25T01:18:21;6.50;;;2.38;;
40907;SDS011;51055;59.436;24.778;2024-01-25T01:21:47;5.47;;;1.95;;
40907;SDS011;51055;59.436;24.778;2024-01-25T01:25:13;6.18;;;2.58;;
40907;SDS011;51055;59.436;24.778;2024-01-25T01:28:39;6.38;;;2.35;;
40907;SDS011;51055;59.436;24.778;2024-01-25T01:32:05;5.53;;;2.00;;
40907;SDS011;51055;59.436;24.778;2024-01-25T01:35:32;4.00;;;2.05;;
40907;SDS011;51055;59.436;24.778;2024-01-25T01:38:58;4.63;;;1.90;;
40907;SDS011;51055;59.436;24.778;2024-01-25T01:42:27;3.60;;;1.60;;
40907;SDS011;51055;59.436;24.778;2024-01-25T01:45:54;5.10;;;1.90;;
40907;SDS011;51055;59.436;24.778;2024-01-25T01:49:25;5.63;;;2.17;;
40907;SDS011;51055;59.436;24.778;2024-01-25T01:52:52;5.68;;;2.00;;
40907;SDS011;51055;59.436;24.778;2024-01-25T01:56:19;5.82;;;2.03;;
40907;SDS011;51055;59.436;24.778;2024-01-25T01:59:45;3.72;;;1.70;;
40907;SDS011;51055;59.436;24.778;2024-01-25T02:03:13;4.43;;;1.75;;
40907;SDS011;51055;59.436;24.778;2024-01-25T02:06:40;5.93;;;2.00;;
40907;SDS011;51055;59.436;24.778;2024-01-25T02:10:09;5.28;;;1.60;;
40907;SDS011;51055;59.436;24.778;2024-01-25T02:13:37;5.03;;;1.95;;
40907;SDS011;51055;59.436;24.778;2024-01-25T02:17:04;6.53;;;2.38;;
40907;SDS011;51055;59.436;24.778;2024-01-25T02:20:30;6.75;;;3.10;;
40907;SDS011;51055;59.436;24.778;2024-01-25T02:23:56;6.10;;;2.72;;
40907;SDS011;51055;59.436;24.778;2024-01-25T02:27:22;8.15;;;3.08;;
40907;SDS011;51055;59.436;24.778;2024-01-25T02:30:49;8.38;;;3.22;;
40907;SDS011;51055;59.436;24.778;2024-01-25T02:34:16;7.35;;;2.75;;
40907;SDS011;51055;59.436;24.778;2024-01-25T02:37:42;6.70;;;3.00;;
40907;SDS011;51055;59.436;24.778;2024-01-25T02:41:09;6.78;;;3.05;;
40907;SDS011;51055;59.436;24.778;2024-01-25T02:44:35;6.85;;;3.33;;
40907;SDS011;51055;59.436;24.778;2024-01-25T02:48:01;6.43;;;2.47;;
40907;SDS011;51055;59.436;24.778;2024-01-25T02:51:28;7.18;;;3.17;;
40907;SDS011;51055;59.436;24.778;2024-01-25T02:54:54;5.63;;;2.47;;
40907;SDS011;51055;59.436;24.778;2024-01-25T02:58:20;6.65;;;2.78;;
40907;SDS011;51055;59.436;24.778;2024-01-25T03:01:47;4.80;;;2.05;;
40907;SDS011;51055;59.436;24.778;2024-01-25T03:05:13;5.88;;;2.50;;
40907;SDS011;51055;59.436;24.778;2024-01-25T03:08:39;4.97;;;2.20;;
40907;SDS011;51055;59.436;24.778;2024-01-25T03:12:06;5.40;;;2.05;;
40907;SDS011;51055;59.436;24.778;2024-01-25T03:15:32;4.35;;;2.10;;
40907;SDS011;51055;59.436;24.778;2024-01-25T03:18:59;4.55;;;1.98;;
40907;SDS011;51055;59.436;24.778;2024-01-25T03:22:25;3.60;;;1.75;;
40907;SDS011;51055;59.436;24.778;2024-01-25T03:25:51;5.18;;;1.88;;
40907;SDS011;51055;59.436;24.778;2024-01-25T03:29:17;3.95;;;1.90;;
40907;SDS011;51055;59.436;24.778;2024-01-25T03:32:45;4.80;;;1.80;;
40907;SDS011;51055;59.436;24.778;2024-01-25T03:36:14;4.22;;;1.90;;
40907;SDS011;51055;59.436;24.778;2024-01-25T03:39:41;4.45;;;2.15;;
40907;SDS011;51055;59.436;24.778;2024-01-25T03:43:09;3.90;;;1.75;;
40907;SDS011;51055;59.436;24.778;2024-01-25T03:46:35;4.38;;;2.00;;
40907;SDS011;51055;59.436;24.778;2024-01-25T03:50:01;5.13;;;2.42;;
40907;SDS011;51055;59.436;24.778;2024-01-25T03:53:28;5.53;;;2.17;;
40907;SDS011;51055;59.436;24.778;2024-01-25T03:56:54;4.57;;;1.90;;
40907;SDS011;51055;59.436;24.778;2024-01-25T04:00:20;5.72;;;2.00;;
40907;SDS011;51055;59.436;24.778;2024-01-25T04:03:47;6.55;;;2.00;;
40907;SDS011;51055;59.436;24.778;2024-01-25T04:07:13;5.28;;;1.70;;
40907;SDS011;51055;59.436;24.778;2024-01-25T04:10:39;4.13;;;1.60;;
40907;SDS011;51055;59.436;24.778;2024-01-25T04:14:06;4.65;;;1.90;;
40907;SDS011;51055;59.436;24.778;2024-01-25T04:17:33;3.67;;;1.65;;
40907;SDS011;51055;59.436;24.778;2024-01-25T04:21:00;3.08;;;1.30;;
40907;SDS011;51055;59.436;24.778;2024-01-25T04:24:26;4.18;;;1.30;;
40907;SDS011;51055;59.436;24.778;2024-01-25T04:27:54;1.92;;;1.38;;
40907;SDS011;51055;59.436;24.778;2024-01-25T04:31:20;3.63;;;1.40;;
40907;SDS011;51055;59.436;24.778;2024-01-25T04:34:46;3.13;;;1.33;;
40907;SDS011;51055;59.436;24.778;2024-01-25T04:38:13;5.85;;;1.30;;
40907;SDS011;51055;59.436;24.778;2024-01-25T04:41:39;2.35;;;1.30;;
40907;SDS011;51055;59.436;24.778;2024-01-25T04:45:06;3.38;;;1.25;;
40907;SDS011;51055;59.436;24.778;2024-01-25T04:48:32;4.32;;;1.15;;
40907;SDS011;51055;59.436;24.778;2024-01-25T04:51:59;4.55;;;1.55;;
40907;SDS011;51055;59.436;24.778;2024-01-25T04:55:26;3.42;;;1.33;;
40907;SDS011;51055;59.436;24.778;2024-01-25T04:58:53;2.15;;;1.08;;
40907;SDS011;51055;59.436;24.778;2024-01-25T05:02:19;4.25;;;1.30;;
40907;SDS011;51055;59.436;24.778;2024-01-25T05:05:45;2.50;;;1.02;;
40907;SDS011;51055;59.436;24.778;2024-01-25T05:09:11;1.33;;;0.88;;
40907;SDS011;51055;59.436;24.778;2024-01-25T05:12:38;3.30;;;1.10;;
40907;SDS011;51055;59.436;24.778;2024-01-25T05:16:04;1.80;;;1.00;;
40907;SDS011;51055;59.436;24.778;2024-01-25T05:19:30;3.25;;;1.15;;
40907;SDS011;51055;59.436;24.778;2024-01-25T05:23:00;3.28;;;1.08;;
40907;SDS011;51055;59.436;24.778;2024-01-25T05:26:27;1.52;;;1.00;;
40907;SDS011;51055;59.436;24.778;2024-01-25T05:29:53;3.38;;;1.20;;
40907;SDS011;51055;59.436;24.778;2024-01-25T05:33:20;2.85;;;1.20;;
40907;SDS011;51055;59.436;24.778;2024-01-25T05:36:46;1.90;;;1.10;;
40907;SDS011;51055;59.436;24.778;2024-01-25T05:40:13;4.32;;;1.85;;
40907;SDS011;51055;59.436;24.778;2024-01-25T05:43:39;2.17;;;1.10;;
40907;SDS011;51055;59.436;24.778;2024-01-25T05:47:05;2.78;;;1.40;;
40907;SDS011;51055;59.436;24.778;2024-01-25T05:50:31;3.22;;;1.30;;
40907;SDS011;51055;59.436;24.778;2024-01-25T05:53:58;3.20;;;1.40;;
40907;SDS011;51055;59.436;24.778;2024-01-25T05:57:26;2.30;;;1.23;;
40907;SDS011;51055;59.436;24.778;2024-01-25T06:00:53;3.67;;;1.50;;
40907;SDS011;51055;59.436;24.778;2024-01-25T06:04:19;4.78;;;1.60;;
40907;SDS011;51055;59.436;24.778;2024-01-25T06:07:46;3.05;;;1.40;;
40907;SDS011;51055;59.436;24.778;2024-01-25T06:11:24;4.30;;;1.33;;
40907;SDS011;51055;59.436;24.778;2024-01-25T06:14:50;3.60;;;1.60;;
40907;SDS011;51055;59.436;24.778;2024-01-25T06:18:17;4.93;;;1.63;;
40907;SDS011;51055;59.436;24.778;2024-01-25T06:21:43;6.10;;;1.73;;
40907;SDS011;51055;59.436;24.778;2024-01-25T06:25:10;3.85;;;1.63;;
40907;SDS011;51055;59.436;24.778;2024-01-25T06:28:36;4.32;;;1.77;;
40907;SDS011;51055;59.436;24.778;2024-01-25T06:32:02;5.40;;;2.65;;
40907;SDS011;51055;59.436;24.778;2024-01-25T06:35:29;4.03;;;1.90;;
40907;SDS011;51055;59.436;24.778;2024-01-25T06:38:55;4.07;;;1.90;;
40907;SDS011;51055;59.436;24.778;2024-01-25T06:42:22;5.20;;;2.13;;
40907;SDS011;51055;59.436;24.778;2024-01-25T06:45:48;5.50;;;2.10;;
40907;SDS011;51055;59.436;24.778;2024-01-25T06:49:14;4.43;;;2.20;;
40907;SDS011;51055;59.436;24.778;2024-01-25T06:52:40;3.50;;;1.70;;
40907;SDS011;51055;59.436;24.778;2024-01-25T06:56:07;5.88;;;2.20;;
40907;SDS011;51055;59.436;24.778;2024-01-25T06:59:33;6.90;;;2.88;;
40907;SDS011;51055;59.436;24.778;2024-01-25T07:03:00;5.07;;;2.30;;
40907;SDS011;51055;59.436;24.778;2024-01-25T07:06:27;4.47;;;2.05;;
40907;SDS011;51055;59.436;24.778;2024-01-25T07:09:53;5.60;;;2.42;;
40907;SDS011;51055;59.436;24.778;2024-01-25T07:13:20;6.25;;;2.08;;
40907;SDS011;51055;59.436;24.778;2024-01-25T07:16:46;5.38;;;2.78;;
40907;SDS011;51055;59.436;24.778;2024-01-25T07:20:12;3.72;;;1.65;;
40907;SDS011;51055;59.436;24.778;2024-01-25T07:23:38;3.67;;;1.70;;
40907;SDS011;51055;59.436;24.778;2024-01-25T07:27:05;3.88;;;1.63;;
40907;SDS011;51055;59.436;24.778;2024-01-25T07:30:31;5.65;;;1.77;;
40907;SDS011;51055;59.436;24.778;2024-01-25T07:33:58;6.57;;;2.35;;
40907;SDS011;51055;59.436;24.778;2024-01-25T07:37:24;5.25;;;2.20;;
40907;SDS011;51055;59.436;24.778;2024-01-25T07:40:50;6.25;;;2.20;;
40907;SDS011;51055;59.436;24.778;2024-01-25T07:44:17;5.72;;;2.30;;
40907;SDS011;51055;59.436;24.778;2024-01-25T07:47:43;6.05;;;2.67;;
40907;SDS011;51055;59.436;24.778;2024-01-25T07:51:10;4.97;;;2.00;;
40907;SDS011;51055;59.436;24.778;2024-01-25T07:54:37;5.88;;;2.40;;
40907;SDS011;51055;59.436;24.778;2024-01-25T07:58:03;4.32;;;2.00;;
40907;SDS011;51055;59.436;24.778;2024-01-25T08:01:30;4.60;;;2.10;;
40907;SDS011;51055;59.436;24.778;2024-01-25T08:04:56;5.53;;;1.95;;
40907;SDS011;51055;59.436;24.778;2024-01-25T08:08:23;6.25;;;2.10;;
40907;SDS011;51055;59.436;24.778;2024-01-25T08:11:49;3.90;;;1.65;;
40907;SDS011;51055;59.436;24.778;2024-01-25T08:15:25;3.88;;;1.70;;
40907;SDS011;51055;59.436;24.778;2024-01-25T08:18:52;4.60;;;2.03;;
40907;SDS011;51055;59.436;24.778;2024-01-25T08:22:18;5.22;;;1.92;;
40907;SDS011;51055;59.436;24.778;2024-01-25T08:25:46;4.60;;;2.10;;
40907;SDS011;51055;59.436;24.778;2024-01-25T08:29:12;6.20;;;2.13;;
40907;SDS011;51055;59.436;24.778;2024-01-25T08:32:39;5.70;;;1.90;;
40907;SDS011;51055;59.436;24.778;2024-01-25T08:36:09;5.28;;;2.10;;
40907;SDS011;51055;59.436;24.778;2024-01-25T08:39:36;4.03;;;1.73;;
40907;SDS011;51055;59.436;24.778;2024-01-25T08:43:02;4.15;;;1.90;;
40907;SDS011;51055;59.436;24.778;2024-01-25T08:46:28;3.67;;;1.77;;
40907;SDS011;51055;59.436;24.778;2024-01-25T08:49:54;4.15;;;1.50;;
40907;SDS011;51055;59.436;24.778;2024-01-25T08:53:22;2.90;;;1.50;;
40907;SDS011;51055;59.436;24.778;2024-01-25T08:56:48;3.63;;;1.42;;
40907;SDS011;51055;59.436;24.778;2024-01-25T09:00:15;5.03;;;1.95;;
40907;SDS011;51055;59.436;24.778;2024-01-25T09:03:41;4.35;;;1.88;;
40907;SDS011;51055;59.436;24.778;2024-01-25T09:07:10;4.88;;;1.63;;
40907;SDS011;51055;59.436;24.778;2024-01-25T09:10:37;5.45;;;1.85;;
40907;SDS011;51055;59.436;24.778;2024-01-25T09:14:03;3.28;;;1.40;;
40907;SDS011;51055;59.436;24.778;2024-01-25T09:17:30;5.55;;;2.03;;
40907;SDS011;51055;59.436;24.778;2024-01-25T09:20:56;3.15;;;1.60;;
40907;SDS011;51055;59.436;24.778;2024-01-25T09:24:24;3.25;;;1.23;;
40907;SDS011;51055;59.436;24.778;2024-01-25T09:27:51;3.30;;;1.38;;
40907;SDS011;51055;59.436;24.778;2024-01-25T09:31:17;2.33;;;1.20;;
40907;SDS011;51055;59.436;24.778;2024-01-25T09:34:44;2.90;;;1.48;;
40907;SDS011;51055;59.436;24.778;2024-01-25T09:38:15;3.55;;;1.60;;
40907;SDS011;51055;59.436;24.778;2024-01-25T09:41:45;4.53;;;1.40;;
40907;SDS011;51055;59.436;24.778;2024-01-25T09:45:12;3.58;;;1.55;;
40907;SDS011;51055;59.436;24.778;2024-01-25T09:48:45;3.30;;;1.23;;
40907;SDS011;51055;59.436;24.778;2024-01-25T09:52:13;2.20;;;1.10;;
40907;SDS011;51055;59.436;24.778;2024-01-25T09:55:45;3.17;;;1.20;;
40907;SDS011;51055;59.436;24.778;2024-01-25T09:59:13;3.05;;;1.40;;
40907;SDS011;51055;59.436;24.778;2024-01-25T10:02:40;4.40;;;1.27;;
40907;SDS011;51055;59.436;24.778;2024-01-25T10:06:13;3.20;;;1.60;;
40907;SDS011;51055;59.436;24.778;2024-01-25T10:09:42;2.50;;;1.02;;
40907;SDS011;51055;59.436;24.778;2024-01-25T10:13:11;2.53;;;1.30;;
40907;SDS011;51055;59.436;24.778;2024-01-25T10:16:38;3.63;;;1.30;;
40907;SDS011;51055;59.436;24.778;2024-01-25T10:20:07;3.28;;;1.48;;
40907;SDS011;51055;59.436;24.778;2024-01-25T10:23:34;3.45;;;1.10;;
40907;SDS011;51055;59.436;24.778;2024-01-25T10:27:01;3.65;;;1.17;;
40907;SDS011;51055;59.436;24.778;2024-01-25T10:30:27;2.35;;;1.20;;
40907;SDS011;51055;59.436;24.778;2024-01-25T10:33:59;5.38;;;1.27;;
40907;SDS011;51055;59.436;24.778;2024-01-25T10:37:27;3.38;;;1.33;;
40907;SDS011;51055;59.436;24.778;2024-01-25T10:40:55;5.40;;;1.30;;
40907;SDS011;51055;59.436;24.778;2024-01-25T10:44:21;3.95;;;1.50;;
40907;SDS011;51055;59.436;24.778;2024-01-25T10:47:48;3.17;;;1.27;;
40907;SDS011;51055;59.436;24.778;2024-01-25T10:51:15;4.30;;;1.58;;
40907;SDS011;51055;59.436;24.778;2024-01-25T10:54:42;3.95;;;1.20;;
40907;SDS011;51055;59.436;24.778;2024-01-25T10:58:09;3.90;;;1.23;;
40907;SDS011;51055;59.436;24.778;2024-01-25T11:01:38;4.18;;;1.00;;
40907;SDS011;51055;59.436;24.778;2024-01-25T11:05:07;2.97;;;1.20;;
40907;SDS011;51055;59.436;24.778;2024-01-25T11:08:38;2.75;;;1.15;;
40907;SDS011;51055;59.436;24.778;2024-01-25T11:12:11;3.28;;;1.15;;
40907;SDS011;51055;59.436;24.778;2024-01-25T11:15:41;3.17;;;1.27;;
40907;SDS011;51055;59.436;24.778;2024-01-25T11:19:19;2.42;;;1.15;;
40907;SDS011;51055;59.436;24.778;2024-01-25T11:22:47;3.97;;;1.17;;
40907;SDS011;51055;59.436;24.778;2024-01-25T11:26:13;5.00;;;1.40;;
40907;SDS011;51055;59.436;24.778;2024-01-25T11:29:41;2.40;;;1.10;;
40907;SDS011;51055;59.436;24.778;2024-01-25T11:33:07;3.88;;;1.20;;
40907;SDS011;51055;59.436;24.778;2024-01-25T11:36:34;2.63;;;1.13;;
40907;SDS011;51055;59.436;24.778;2024-01-25T11:40:00;3.03;;;1.13;;
40907;SDS011;51055;59.436;24.778;2024-01-25T11:43:26;2.83;;;1.33;;
40907;SDS011;51055;59.436;24.778;2024-01-25T11:46:55;3.38;;;1.38;;
40907;SDS011;51055;59.436;24.778;2024-01-25T11:50:21;2.97;;;1.30;;
40907;SDS011;51055;59.436;24.778;2024-01-25T11:53:48;3.25;;;1.40;;
40907;SDS011;51055;59.436;24.778;2024-01-25T11:57:14;2.88;;;1.20;;
40907;SDS011;51055;59.436;24.778;2024-01-25T12:00:40;3.28;;;1.45;;
40907;SDS011;51055;59.436;24.778;2024-01-25T12:04:08;3.65;;;1.90;;
40907;SDS011;51055;59.436;24.778;2024-01-25T12:07:39;4.75;;;1.92;;
40907;SDS011;51055;59.436;24.778;2024-01-25T12:11:06;4.55;;;2.00;;
40907;SDS011;51055;59.436;24.778;2024-01-25T12:14:33;6.32;;;2.40;;
40907;SDS011;51055;59.436;24.778;2024-01-25T12:18:00;4.10;;;1.80;;
40907;SDS011;51055;59.436;24.778;2024-01-25T12:21:27;4.70;;;2.10;;
40907;SDS011;51055;59.436;24.778;2024-01-25T12:25:01;5.22;;;2.78;;
40907;SDS011;51055;59.436;24.778;2024-01-25T12:28:29;4.75;;;1.95;;
40907;SDS011;51055;59.436;24.778;2024-01-25T12:31:56;4.38;;;1.50;;
40907;SDS011;51055;59.436;24.778;2024-01-25T12:35:22;2.70;;;1.40;;
40907;SDS011;51055;59.436;24.778;2024-01-25T12:38:48;1.83;;;1.10;;
40907;SDS011;51055;59.436;24.778;2024-01-25T12:42:15;2.65;;;1.45;;
40907;SDS011;51055;59.436;24.778;2024-01-25T12:45:42;2.70;;;1.20;;
40907;SDS011;51055;59.436;24.778;2024-01-25T12:49:09;3.20;;;1.67;;
40907;SDS011;51055;59.436;24.778;2024-01-25T12:52:35;3.92;;;1.50;;
40907;SDS011;51055;59.436;24.778;2024-01-25T12:56:01;5.07;;;1.80;;
40907;SDS011;51055;59.436;24.778;2024-01-25T12:59:28;3.47;;;1.52;;
40907;SDS011;51055;59.436;24.778;2024-01-25T13:02:54;3.65;;;1.45;;
40907;SDS011;51055;59.436;24.778;2024-01-25T13:06:21;2.08;;;1.10;;
40907;SDS011;51055;59.436;24.778;2024-01-25T13:09:47;3.53;;;1.20;;
40907;SDS011;51055;59.436;24.778;2024-01-25T13:13:14;3.33;;;1.80;;
40907;SDS011;51055;59.436;24.778;2024-01-25T13:16:40;2.75;;;1.40;;
40907;SDS011;51055;59.436;24.778;2024-01-25T13:20:06;2.38;;;1.17;;
40907;SDS011;51055;59.436;24.778;2024-01-25T13:23:33;3.50;;;1.55;;
40907;SDS011;51055;59.436;24.778;2024-01-25T13:26:59;3.35;;;1.20;;
40907;SDS011;51055;59.436;24.778;2024-01-25T13:30:25;2.08;;;1.00;;
40907;SDS011;51055;59.436;24.778;2024-01-25T13:33:52;2.30;;;1.10;;
40907;SDS011;51055;59.436;24.778;2024-01-25T13:37:18;3.97;;;1.40;;
40907;SDS011;51055;59.436;24.778;2024-01-25T13:40:44;2.13;;;1.25;;
40907;SDS011;51055;59.436;24.778;2024-01-25T13:44:11;3.95;;;1.60;;
40907;SDS011;51055;59.436;24.778;2024-01-25T13:47:37;3.15;;;1.60;;
40907;SDS011;51055;59.436;24.778;2024-01-25T13:51:03;2.75;;;1.33;;
40907;SDS011;51055;59.436;24.778;2024-01-25T13:54:30;3.00;;;1.50;;
40907;SDS011;51055;59.436;24.778;2024-01-25T13:57:56;2.40;;;1.40;;
40907;SDS011;51055;59.436;24.778;2024-01-25T14:01:22;4.28;;;1.73;;
40907;SDS011;51055;59.436;24.778;2024-01-25T14:04:49;4.82;;;1.75;;
40907;SDS011;51055;59.436;24.778;2024-01-25T14:08:15;4.45;;;1.80;;
40907;SDS011;51055;59.436;24.778;2024-01-25T14:11:42;4.13;;;1.70;;
40907;SDS011;51055;59.436;24.778;2024-01-25T14:15:08;3.90;;;1.55;;
40907;SDS011;51055;59.436;24.778;2024-01-25T14:18:38;3.17;;;1.60;;
40907;SDS011;51055;59.436;24.778;2024-01-25T14:22:05;2.92;;;1.30;;
40907;SDS011;51055;59.436;24.778;2024-01-25T14:25:31;3.03;;;1.50;;
40907;SDS011;51055;59.436;24.778;2024-01-25T14:28:57;2.70;;;1.30;;
40907;SDS011;51055;59.436;24.778;2024-01-25T14:32:24;3.70;;;1.50;;
40907;SDS011;51055;59.436;24.778;2024-01-25T14:35:50;6.07;;;3.17;;
40907;SDS011;51055;59.436;24.778;2024-01-25T14:39:19;5.38;;;1.40;;
40907;SDS011;51055;59.436;24.778;2024-01-25T14:43:05;3.42;;;2.03;;
40907;SDS011;51055;59.436;24.778;2024-01-25T14:46:32;3.25;;;1.20;;
40907;SDS011;51055;59.436;24.778;2024-01-25T14:49:58;5.03;;;2.88;;
40907;SDS011;51055;59.436;24.778;2024-01-25T14:53:24;2.78;;;1.40;;
40907;SDS011;51055;59.436;24.778;2024-01-25T14:56:51;2.95;;;1.20;;
40907;SDS011;51055;59.436;24.778;2024-01-25T15:00:18;2.40;;;1.10;;
40907;SDS011;51055;59.436;24.778;2024-01-25T15:03:46;2.88;;;1.10;;
40907;SDS011;51055;59.436;24.778;2024-01-25T15:07:12;2.35;;;1.10;;
40907;SDS011;51055;59.436;24.778;2024-01-25T15:10:39;1.25;;;1.00;;
40907;SDS011;51055;59.436;24.778;2024-01-25T15:14:05;2.13;;;1.38;;
40907;SDS011;51055;59.436;24.778;2024-01-25T15:17:31;3.38;;;1.70;;
40907;SDS011;51055;59.436;24.778;2024-01-25T15:20:59;1.90;;;1.00;;
40907;SDS011;51055;59.436;24.778;2024-01-25T15:24:26;3.90;;;1.20;;
40907;SDS011;51055;59.436;24.778;2024-01-25T15:27:54;3.13;;;1.33;;
40907;SDS011;51055;59.436;24.778;2024-01-25T15:31:20;2.78;;;1.25;;
40907;SDS011;51055;59.436;24.778;2024-01-25T15:34:46;1.02;;;0.90;;
40907;SDS011;51055;59.436;24.778;2024-01-25T15:38:12;2.28;;;1.05;;
40907;SDS011;51055;59.436;24.778;2024-01-25T15:41:38;1.60;;;0.95;;
40907;SDS011;51055;59.436;24.778;2024-01-25T15:45:05;4.65;;;1.10;;
40907;SDS011;51055;59.436;24.778;2024-01-25T15:48:32;1.05;;;0.85;;
40907;SDS011;51055;59.436;24.778;2024-01-25T15:51:58;2.92;;;1.30;;
40907;SDS011;51055;59.436;24.778;2024-01-25T15:55:24;3.10;;;1.58;;
40907;SDS011;51055;59.436;24.778;2024-01-25T15:58:50;3.55;;;1.60;;
40907;SDS011;51055;59.436;24.778;2024-01-25T16:02:18;4.63;;;1.90;;
40907;SDS011;51055;59.436;24.778;2024-01-25T16:05:46;4.65;;;2.33;;
40907;SDS011;51055;59.436;24.778;2024-01-25T16:09:13;5.07;;;2.00;;
40907;SDS011;51055;59.436;24.778;2024-01-25T16:12:39;4.20;;;1.90;;
40907;SDS011;51055;59.436;24.778;2024-01-25T16:16:05;2.67;;;1.45;;
40907;SDS011;51055;59.436;24.778;2024-01-25T16:19:31;3.40;;;1.63;;
40907;SDS011;51055;59.436;24.778;2024-01-25T16:22:57;2.47;;;1.30;;
40907;SDS011;51055;59.436;24.778;2024-01-25T16:26:23;2.67;;;1.13;;
40907;SDS011;51055;59.436;24.778;2024-01-25T16:29:50;2.10;;;1.13;;
40907;SDS011;51055;59.436;24.778;2024-01-25T16:33:16;4.15;;;1.33;;
40907;SDS011;51055;59.436;24.778;2024-01-25T16:36:42;8.00;;;4.35;;
40907;SDS011;51055;59.436;24.778;2024-01-25T16:40:09;8.98;;;5.00;;
40907;SDS011;51055;59.436;24.778;2024-01-25T16:43:35;3.97;;;1.70;;
40907;SDS011;51055;59.436;24.778;2024-01-25T16:47:01;2.72;;;1.30;;
40907;SDS011;51055;59.436;24.778;2024-01-25T16:50:28;2.42;;;1.30;;
40907;SDS011;51055;59.436;24.778;2024-01-25T16:53:54;4.47;;;1.60;;
40907;SDS011;51055;59.436;24.778;2024-01-25T16:57:20;3.10;;;1.40;;
40907;SDS011;51055;59.436;24.778;2024-01-25T17:00:47;3.47;;;1.63;;
40907;SDS011;51055;59.436;24.778;2024-01-25T17:04:14;4.45;;;2.20;;
40907;SDS011;51055;59.436;24.778;2024-01-25T17:07:40;5.72;;;2.63;;
40907;SDS011;51055;59.436;24.778;2024-01-25T17:11:07;4.68;;;2.10;;
40907;SDS011;51055;59.436;24.778;2024-01-25T17:14:33;4.60;;;2.30;;
40907;SDS011;51055;59.436;24.778;2024-01-25T17:17:59;4.57;;;2.25;;
40907;SDS011;51055;59.436;24.778;2024-01-25T17:21:29;4.40;;;1.63;;
40907;SDS011;51055;59.436;24.778;2024-01-25T17:24:55;5.18;;;1.90;;
40907;SDS011;51055;59.436;24.778;2024-01-25T17:28:21;5.13;;;1.88;;
40907;SDS011;51055;59.436;24.778;2024-01-25T17:31:48;5.50;;;2.30;;
40907;SDS011;51055;59.436;24.778;2024-01-25T17:35:15;6.15;;;2.20;;
40907;SDS011;51055;59.436;24.778;2024-01-25T17:38:42;5.90;;;2.72;;
40907;SDS011;51055;59.436;24.778;2024-01-25T17:42:08;4.05;;;1.95;;
40907;SDS011;51055;59.436;24.778;2024-01-25T17:45:35;6.47;;;2.30;;
40907;SDS011;51055;59.436;24.778;2024-01-25T17:49:01;4.38;;;2.15;;
40907;SDS011;51055;59.436;24.778;2024-01-25T17:52:28;5.45;;;2.65;;
40907;SDS011;51055;59.436;24.778;2024-01-25T17:55:55;5.85;;;2.00;;
40907;SDS011;51055;59.436;24.778;2024-01-25T17:59:21;8.05;;;2.45;;
40907;SDS011;51055;59.436;24.778;2024-01-25T18:02:48;6.18;;;2.40;;
40907;SDS011;51055;59.436;24.778;2024-01-25T18:06:14;5.68;;;2.55;;
40907;SDS011;51055;59.436;24.778;2024-01-25T18:09:43;6.90;;;2.40;;
40907;SDS011;51055;59.436;24.778;2024-01-25T18:13:09;5.93;;;2.33;;
40907;SDS011;51055;59.436;24.778;2024-01-25T18:16:35;5.85;;;2.28;;
40907;SDS011;51055;59.436;24.778;2024-01-25T18:20:01;7.57;;;2.33;;
40907;SDS011;51055;59.436;24.778;2024-01-25T18:23:29;8.13;;;2.50;;
40907;SDS011;51055;59.436;24.778;2024-01-25T18:26:55;6.45;;;2.75;;
40907;SDS011;51055;59.436;24.778;2024-01-25T18:30:23;5.85;;;2.53;;
40907;SDS011;51055;59.436;24.778;2024-01-25T18:33:50;6.22;;;3.08;;
40907;SDS011;51055;59.436;24.778;2024-01-25T18:37:16;6.93;;;2.67;;
40907;SDS011;51055;59.436;24.778;2024-01-25T18:40:43;9.98;;;2.88;;
40907;SDS011;51055;59.436;24.778;2024-01-25T18:44:09;6.30;;;2.53;;
40907;SDS011;51055;59.436;24.778;2024-01-25T18:47:35;9.57;;;2.55;;
40907;SDS011;51055;59.436;24.778;2024-01-25T18:51:01;9.10;;;3.22;;
40907;SDS011;51055;59.436;24.778;2024-01-25T18:54:29;7.40;;;2.58;;
40907;SDS011;51055;59.436;24.778;2024-01-25T18:57:56;6.18;;;2.40;;
40907;SDS011;51055;59.436;24.778;2024-01-25T19:01:23;7.05;;;2.70;;
40907;SDS011;51055;59.436;24.778;2024-01-25T19:04:49;7.95;;;2.97;;
40907;SDS011;51055;59.436;24.778;2024-01-25T19:08:17;7.88;;;2.30;;
40907;SDS011;51055;59.436;24.778;2024-01-25T19:11:43;7.43;;;2.70;;
40907;SDS011;51055;59.436;24.778;2024-01-25T19:15:10;6.75;;;3.00;;
40907;SDS011;51055;59.436;24.778;2024-01-25T19:18:36;7.07;;;2.58;;
40907;SDS011;51055;59.436;24.778;2024-01-25T19:22:02;7.97;;;2.80;;
40907;SDS011;51055;59.436;24.778;2024-01-25T19:25:29;8.07;;;2.95;;
40907;SDS011;51055;59.436;24.778;2024-01-25T19:28:55;5.85;;;2.40;;
40907;SDS011;51055;59.436;24.778;2024-01-25T19:32:21;6.40;;;2.65;;
40907;SDS011;51055;59.436;24.778;2024-01-25T19:35:48;5.20;;;2.33;;
40907;SDS011;51055;59.436;24.778;2024-01-25T19:39:15;6.22;;;2.25;;
40907;SDS011;51055;59.436;24.778;2024-01-25T19:42:42;6.40;;;2.17;;
40907;SDS011;51055;59.436;24.778;2024-01-25T19:46:08;8.68;;;2.70;;
40907;SDS011;51055;59.436;24.778;2024-01-25T19:49:35;7.60;;;2.30;;
40907;SDS011;51055;59.436;24.778;2024-01-25T19:53:01;6.85;;;2.45;;
40907;SDS011;51055;59.436;24.778;2024-01-25T19:56:27;6.25;;;2.33;;
40907;SDS011;51055;59.436;24.778;2024-01-25T19:59:53;6.82;;;2.10;;
40907;SDS011;51055;59.436;24.778;2024-01-25T20:03:20;8.20;;;2.70;;
40907;SDS011;51055;59.436;24.778;2024-01-25T20:06:47;6.93;;;2.50;;
40907;SDS011;51055;59.436;24.778;2024-01-25T20:10:13;7.03;;;2.55;;
40907;SDS011;51055;59.436;24.778;2024-01-25T20:13:39;7.90;;;3.08;;
40907;SDS011;51055;59.436;24.778;2024-01-25T20:17:05;6.55;;;2.38;;
40907;SDS011;51055;59.436;24.778;2024-01-25T20:20:32;5.68;;;2.22;;
40907;SDS011;51055;59.436;24.778;2024-01-25T20:23:58;7.72;;;3.10;;
40907;SDS011;51055;59.436;24.778;2024-01-25T20:27:25;16.15;;;6.20;;